Christmas Valley, Oregon
Current Conditions -  °F | °C
As of 7:15 AM on Friday 31 Oct 2014 (Local Time) from KBDN Reporting Station
Overcast Overcast  
Wind Chill: 43°   Ceiling: 4100
Heat Index: 46°   Visibility: NA
Dew Point: 45°   Wind: 7mph
Humidity: 93%   Direction: 170°S
Pressure: 29.74"   Gusts: NA
Location:  43.24°N, 120.54°W
Report Text: KBDN 311415Z AUTO 17006KT BKN041 OVC048 08/07 A2974 RMK AO2 LTG DSNT W
Loading
Personal Weather Stations






























Interactive Weather Map
Tropical Storm Tracking
New forecast layout! Learn more

10-Day Weather Forecast

Advertisements
Track Severe Weather on mobile